Погода Кобанна 2 недели

Северная Осетия — Алания, Россия

16 - 29 июля
  • 16июля
    Сегодня
    +21°
    +32°
    Небольшая облачность
    ВремяПогодаТемператураВлажностьДавлениеВетер, м/сВероятность осадков
    00:00Ясно и безоблачно+21°C78 %704 мм1.4 м/с2 %
    03:00Ясно и безоблачно+20°C76 %703 мм1.3 м/с2 %
    06:00Практически безоблачно+21°C80 %704 мм1.4 м/с2 %
    09:00Ясно и безоблачно+28°C46 %705 мм1.2 м/с2 %
    12:00Небольшая облачность+31°C34 %705 мм1.9 м/с11 %
    15:00Небольшая облачность+30°C32 %704 мм2.0 м/с17 %
    18:00Небольшая облачность+29°C54 %705 мм2.0 м/с15 %
    21:00Ясно и безоблачно+24°C71 %704 мм1.0 м/с5 %
  • 17июля
    Среда
    +20°
    +32°
    Небольшая облачность
    ВремяПогодаТемператураВлажностьДавлениеВетер, м/сВероятность осадков
    00:00Облачно с прояснениями+23°C69 %704 мм1.4 м/с2 %
    03:00Небольшая облачность+22°C73 %704 мм1.3 м/с2 %
    06:00Практически безоблачно+22°C75 %705 мм1.4 м/с2 %
    09:00Облачно с прояснениями+29°C48 %706 мм1.2 м/с2 %
    12:00Ясно и безоблачно+32°C33 %706 мм2.0 м/с7 %
    15:00Небольшая облачность+31°C34 %706 мм2.1 м/с14 %
    18:00Небольшая облачность+30°C53 %705 мм2.0 м/с13 %
    21:00Облачно с прояснениями+25°C71 %705 мм0.9 м/с2 %
  • 18июля
    Четверг
    +19°
    +31°
    Небольшая облачность
    ВремяПогодаТемператураВлажностьДавлениеВетер, м/сВероятность осадков
    00:00Практически безоблачно+23°C70 %705 мм1.4 м/с1 %
    03:00Практически безоблачно+22°C76 %705 мм1.3 м/с2 %
    06:00Пасмурно, сплошная облачность+22°C73 %705 мм1.4 м/с2 %
    09:00Ясно и безоблачно+27°C50 %706 мм1.1 м/с1 %
    12:00Ясно и безоблачно+31°C35 %706 мм1.9 м/с14 %
    15:00Небольшая облачность+30°C31 %704 мм1.9 м/с14 %
    18:00Облачно с прояснениями+29°C50 %704 мм2.0 м/с13 %
    21:00Облачно с прояснениями+24°C64 %704 мм1.1 м/с2 %
  • 19июля
    Пятница
    +21°
    +33°
    Ясно и безоблачно
    ВремяПогодаТемператураВлажностьДавлениеВетер, м/сВероятность осадков
    00:00Ясно и безоблачно+22°C77 %703 мм1.5 м/с2 %
    03:00Ясно и безоблачно+21°C77 %703 мм1.4 м/с2 %
    06:00Ясно и безоблачно+21°C76 %703 мм1.5 м/с2 %
    09:00Ясно и безоблачно+29°C41 %704 мм1.3 м/с2 %
    12:00Ясно и безоблачно+32°C31 %704 мм2.0 м/с3 %
    15:00Ясно и безоблачно+32°C28 %703 мм2.0 м/с2 %
    18:00Облачно с прояснениями+31°C47 %702 мм2.0 м/с2 %
    21:00Облачно с прояснениями+25°C67 %702 мм1.1 м/с2 %
  • 20июля
    Суббота
    +22°
    +33°
    Облачно с прояснениями
    ВремяПогодаТемператураВлажностьДавлениеВетер, м/сВероятность осадков
    00:00Практически безоблачно+23°C68 %701 мм1.6 м/с2 %
    03:00Небольшая облачность+22°C69 %701 мм1.4 м/с2 %
    06:00Облачно с прояснениями+22°C71 %701 мм1.6 м/с5 %
    09:00Облачно с прояснениями+30°C36 %702 мм1.2 м/с4 %
    12:00Облачно с прояснениями+32°C26 %702 мм1.8 м/с4 %
    15:00Облачно с прояснениями+31°C27 %701 мм2.1 м/с7 %
    18:00Облачно с прояснениями+29°C51 %701 мм2.1 м/с7 %
    21:00Небольшая облачность+26°C50 %701 мм1.2 м/с7 %
Мы используем cookies
Соглашаюсь